This is the latest recevied weather packets stored in our database for station/object IU8UOQ-5. If no packets are shown the sender has not sent any weather packets the latest 10 day(s).
| Time | Temp. | Humidity | Pressure | Rain* | Wind** | Luminosity | Snow |
|---|---|---|---|---|---|---|---|
| 1777920869 | 20.56° C | 45% | 1010.8 hPa | - | - | - | - |
| 1777919666 | 20.56° C | 45% | 1010.5 hPa | - | - | - | - |
| 1777918465 | 20.56° C | 48% | 1010.5 hPa | - | - | - | - |
| 1777917264 | 21.11° C | 45% | 1010.5 hPa | - | - | - | - |
| 1777916063 | 20.56° C | 44% | 1010.3 hPa | - | - | - | - |
| 1777914861 | 20.56° C | 44% | 1010.1 hPa | - | - | - | - |
| 1777913660 | 20° C | 46% | 1010 hPa | - | - | - | - |
| 1777912459 | 20° C | 46% | 1010.2 hPa | - | - | - | - |
| 1777911257 | 20° C | 46% | 1010 hPa | - | - | - | - |
| 1777910056 | 20° C | 46% | 1010.4 hPa | - | - | - | - |
| 1777908855 | 20° C | 46% | 1010.4 hPa | - | - | - | - |
| 1777907654 | 20° C | 45% | 1010.3 hPa | - | - | - | - |
| 1777906452 | 20° C | 45% | 1010.3 hPa | - | - | - | - |
| 1777905251 | 20° C | 45% | 1010.5 hPa | - | - | - | - |
| 1777904050 | 20° C | 45% | 1010.6 hPa | - | - | - | - |
| 1777902849 | 20° C | 44% | 1011 hPa | - | - | - | - |
| 1777901647 | 20° C | 44% | 1011.1 hPa | - | - | - | - |
| 1777900446 | 20° C | 44% | 1011.1 hPa | - | - | - | - |
| 1777899245 | 20.56° C | 42% | 1011.3 hPa | - | - | - | - |
| 1777898044 | 20.56° C | 45% | 1011.4 hPa | - | - | - | - |
| 1777896842 | 20.56° C | 45% | 1011.4 hPa | - | - | - | - |
| 1777895641 | 20.56° C | 45% | 1011.4 hPa | - | - | - | - |
| 1777894440 | 20.56° C | 44% | 1011.4 hPa | - | - | - | - |
| 1777893239 | 19.44° C | 49% | 1011.6 hPa | - | - | - | - |
| 1777892037 | 19.44° C | 49% | 1011.8 hPa | - | - | - | - |
* Rain since midnight (hover to see other rain measurements)
** Current wind speed in m/s (hover to see current wind gust speed)